createdAt,value
2023-03-02T00:02:25.899Z,9.97
2023-03-02T00:06:32.954Z,10.07
2023-03-02T00:10:38.794Z,10.17
2023-03-02T00:14:44.740Z,9.93
2023-03-02T00:18:50.234Z,10.10
2023-03-02T00:22:55.758Z,9.70
2023-03-02T00:27:01.200Z,10.33
2023-03-02T00:31:07.154Z,10.33
2023-03-02T00:35:12.843Z,10.60
2023-03-02T00:39:20.137Z,10.47
2023-03-02T00:43:28.039Z,9.97
2023-03-02T00:47:36.185Z,10.13
2023-03-02T00:51:41.759Z,10.23
2023-03-02T00:55:56.356Z,9.70
2023-03-02T01:00:01.959Z,10.33
2023-03-02T01:04:07.572Z,10.97
2023-03-02T01:08:14.011Z,11.47
2023-03-02T01:12:19.834Z,11.50
2023-03-02T01:16:25.445Z,11.20
2023-03-02T01:20:31.174Z,9.83
2023-03-02T01:24:36.673Z,9.00
2023-03-02T01:28:42.161Z,9.40
2023-03-02T01:32:47.804Z,8.10
2023-03-02T01:36:53.313Z,7.80
2023-03-02T01:40:58.817Z,8.13
2023-03-02T01:45:26.840Z,7.97
2023-03-02T01:49:35.459Z,7.00
2023-03-02T01:53:46.563Z,7.30
2023-03-02T01:57:54.800Z,8.33
2023-03-02T02:02:04.346Z,6.67
2023-03-02T02:06:27.025Z,7.33
2023-03-02T02:10:33.993Z,6.57
2023-03-02T02:14:39.900Z,7.37
2023-03-02T02:18:45.410Z,6.40
2023-03-02T02:23:21.325Z,7.50
2023-03-02T02:27:34.023Z,7.00
2023-03-02T02:31:53.708Z,7.40
2023-03-02T02:36:07.562Z,7.20
2023-03-02T02:40:21.549Z,7.80
2023-03-02T02:44:27.138Z,8.00
2023-03-02T02:48:33.399Z,7.83
2023-03-02T02:52:40.981Z,8.53
2023-03-02T02:56:49.159Z,7.87
2023-03-02T03:00:54.989Z,8.00
2023-03-02T03:05:03.653Z,8.23
2023-03-02T03:09:11.297Z,8.80
2023-03-02T03:13:16.817Z,7.87
2023-03-02T03:17:22.476Z,8.90
2023-03-02T03:21:28.018Z,9.27
2023-03-02T03:25:34.990Z,8.90
2023-03-02T03:29:48.368Z,9.07
2023-03-02T03:33:56.369Z,8.83
2023-03-02T03:38:01.980Z,9.07
2023-03-02T03:42:07.483Z,9.47
2023-03-02T03:46:13.014Z,8.60
2023-03-02T03:50:18.860Z,10.27
2023-03-02T03:54:24.444Z,8.93
2023-03-02T03:58:31.766Z,10.10
2023-03-02T04:02:38.069Z,10.27
2023-03-02T04:06:43.986Z,10.37
2023-03-02T04:10:49.657Z,10.33
2023-03-02T04:14:55.096Z,12.40
2023-03-02T04:19:01.420Z,13.57
2023-03-02T04:23:07.050Z,12.03
2023-03-02T04:27:13.997Z,10.93
2023-03-02T04:31:19.947Z,12.07
2023-03-02T04:35:25.816Z,11.77
2023-03-02T04:39:31.309Z,11.37
2023-03-02T04:43:36.883Z,12.00
2023-03-02T04:47:42.851Z,11.30
2023-03-02T04:51:49.861Z,10.83
2023-03-02T04:55:55.507Z,10.77
2023-03-02T05:00:00.936Z,10.20
2023-03-02T05:04:06.557Z,10.03
2023-03-02T05:08:12.409Z,9.40
2023-03-02T05:12:19.249Z,9.80
2023-03-02T05:16:26.823Z,8.63
2023-03-02T05:20:32.357Z,10.60
2023-03-02T05:24:38.111Z,9.47
2023-03-02T05:28:44.397Z,9.60
2023-03-02T05:32:51.199Z,9.73
2023-03-02T05:36:58.175Z,9.27
2023-03-02T05:41:04.456Z,9.47
2023-03-02T05:45:19.793Z,9.67
2023-03-02T05:49:25.308Z,9.33
2023-03-02T05:53:31.074Z,14.82
2023-03-02T05:57:36.533Z,9.93
2023-03-02T06:01:42.256Z,10.00
2023-03-02T06:05:52.422Z,8.80
2023-03-02T06:09:57.969Z,8.27
2023-03-02T06:14:03.709Z,9.27
2023-03-02T06:18:09.371Z,8.37
2023-03-02T06:22:15.077Z,7.90
2023-03-02T06:26:20.599Z,8.33
2023-03-02T06:30:28.047Z,8.47
2023-03-02T06:34:35.396Z,7.90
2023-03-02T06:38:40.945Z,7.93
2023-03-02T06:42:46.474Z,7.97
2023-03-02T06:46:52.412Z,7.37
2023-03-02T06:50:58.837Z,7.67
2023-03-02T06:55:05.589Z,7.33
2023-03-02T06:59:11.190Z,7.60
2023-03-02T07:03:17.448Z,7.97
2023-03-02T07:07:23.008Z,7.07
2023-03-02T07:11:28.538Z,7.63
2023-03-02T07:15:34.185Z,7.97
2023-03-02T07:19:40.977Z,7.17
2023-03-02T07:23:46.557Z,7.10
2023-03-02T07:27:52.179Z,7.00
2023-03-02T07:32:00.466Z,7.43
2023-03-02T07:36:08.117Z,7.10
2023-03-02T07:40:14.305Z,7.33
2023-03-02T07:44:19.925Z,7.43
2023-03-02T07:48:25.386Z,7.47
2023-03-02T07:52:31.252Z,7.73
2023-03-02T07:56:36.942Z,8.03
2023-03-02T08:00:42.804Z,8.87
2023-03-02T08:04:48.749Z,8.47
2023-03-02T08:08:54.329Z,8.60
2023-03-02T08:12:59.876Z,10.00
2023-03-02T08:17:07.134Z,11.80
2023-03-02T08:21:16.464Z,8.50
2023-03-02T08:25:21.967Z,9.60
2023-03-02T08:29:27.646Z,8.73
2023-03-02T08:33:34.259Z,9.03
2023-03-02T08:37:39.744Z,8.33
2023-03-02T08:41:45.230Z,7.57
2023-03-02T08:45:57.824Z,8.00
2023-03-02T08:50:04.924Z,7.80
2023-03-02T08:54:10.636Z,7.47
2023-03-02T08:58:16.203Z,8.30
2023-03-02T09:02:21.672Z,9.33
2023-03-02T09:06:29.725Z,8.73
2023-03-02T09:10:35.625Z,9.90
2023-03-02T09:14:41.567Z,8.70
2023-03-02T09:18:47.952Z,8.67
2023-03-02T09:22:53.460Z,7.50
2023-03-02T09:26:58.893Z,8.07
2023-03-02T09:31:07.704Z,8.20
2023-03-02T09:35:13.288Z,8.73
2023-03-02T09:39:19.537Z,9.00
2023-03-02T09:43:55.832Z,9.60
2023-03-02T09:48:13.071Z,9.60
2023-03-02T09:52:35.544Z,9.00
2023-03-02T09:56:55.593Z,10.83
2023-03-02T10:01:10.195Z,12.70
2023-03-02T10:05:24.832Z,9.50
2023-03-02T10:09:30.359Z,9.30
2023-03-02T10:13:53.992Z,9.53
2023-03-02T10:18:26.943Z,11.27
2023-03-02T10:22:44.646Z,9.47
2023-03-02T10:27:00.179Z,9.97
2023-03-02T10:31:10.100Z,9.17
2023-03-02T10:35:25.568Z,10.47
2023-03-02T10:39:31.181Z,8.87
2023-03-02T10:43:49.295Z,8.90
2023-03-02T10:48:09.996Z,10.20
2023-03-02T10:52:21.963Z,9.87
2023-03-02T10:56:27.485Z,9.03
2023-03-02T11:00:35.540Z,10.00
2023-03-02T11:04:41.306Z,9.27
2023-03-02T11:08:47.058Z,8.70
2023-03-02T11:12:53.651Z,8.50
2023-03-02T11:17:02.446Z,9.43
2023-03-02T11:21:16.476Z,10.90
2023-03-02T11:25:49.880Z,10.40
2023-03-02T11:30:19.376Z,8.30
2023-03-02T11:34:50.171Z,8.70
2023-03-02T11:38:56.128Z,8.67
2023-03-02T11:43:04.915Z,7.73
2023-03-02T11:47:12.629Z,8.30
2023-03-02T11:51:22.824Z,7.90
2023-03-02T11:55:34.211Z,7.73
2023-03-02T11:59:39.844Z,7.73
2023-03-02T12:03:46.075Z,7.03
2023-03-02T12:08:20.038Z,7.73
2023-03-02T12:12:37.049Z,7.20
2023-03-02T12:16:43.808Z,7.90
2023-03-02T12:21:07.653Z,8.27
2023-03-02T12:25:19.390Z,7.40
2023-03-02T12:29:25.678Z,7.83
2023-03-02T12:33:31.427Z,8.53
2023-03-02T12:37:53.555Z,7.57
2023-03-02T12:42:29.717Z,8.10
2023-03-02T12:46:37.627Z,8.10
2023-03-02T12:50:43.683Z,8.20
2023-03-02T12:55:11.668Z,8.80
2023-03-02T12:59:27.187Z,8.50
2023-03-02T13:03:33.195Z,7.30
2023-03-02T13:07:51.062Z,7.27
2023-03-02T13:11:57.793Z,8.00
2023-03-02T13:16:22.783Z,7.90
2023-03-02T13:20:30.172Z,7.80
2023-03-02T13:24:56.398Z,8.13
2023-03-02T13:29:19.301Z,8.40
2023-03-02T13:33:27.200Z,7.20
2023-03-02T13:37:43.821Z,8.17
2023-03-02T13:42:01.986Z,8.50
2023-03-02T13:46:36.663Z,7.83
2023-03-02T13:50:53.694Z,8.43
2023-03-02T13:54:59.182Z,8.80
2023-03-02T13:59:13.506Z,8.20
2023-03-02T14:03:30.928Z,8.50
2023-03-02T14:07:36.612Z,8.93
2023-03-02T14:11:49.632Z,7.70
2023-03-02T14:15:55.828Z,7.57
2023-03-02T14:20:01.485Z,7.00
2023-03-02T14:24:07.412Z,7.40
2023-03-02T14:28:25.492Z,7.30
2023-03-02T14:32:31.365Z,8.17
2023-03-02T14:36:36.854Z,7.50
2023-03-02T14:40:42.356Z,7.03
2023-03-02T14:44:50.135Z,7.37
2023-03-02T14:48:56.144Z,7.70
2023-03-02T14:53:01.725Z,7.33
2023-03-02T14:57:19.214Z,7.73
2023-03-02T15:01:24.913Z,9.03
2023-03-02T15:05:30.813Z,8.67
2023-03-02T15:09:36.394Z,7.40
2023-03-02T15:13:43.717Z,8.27
2023-03-02T15:17:50.274Z,7.80
2023-03-02T15:21:58.616Z,7.20
2023-03-02T15:26:04.707Z,7.67
2023-03-02T15:30:12.324Z,7.97
2023-03-02T15:34:17.829Z,7.77
2023-03-02T15:38:24.893Z,7.97
2023-03-02T15:42:30.385Z,8.10
2023-03-02T15:46:36.159Z,8.57
2023-03-02T15:50:41.730Z,8.57
2023-03-02T15:54:47.628Z,8.50
2023-03-02T15:58:53.267Z,8.13
2023-03-02T16:02:58.953Z,8.07
2023-03-02T16:07:04.683Z,9.17
2023-03-02T16:11:11.333Z,8.40
2023-03-02T16:15:16.978Z,9.13
2023-03-02T16:19:22.621Z,8.27
2023-03-02T16:23:28.219Z,9.00
2023-03-02T16:27:33.779Z,8.33
2023-03-02T16:31:40.207Z,8.60
2023-03-02T16:35:45.691Z,7.87
2023-03-02T16:39:51.186Z,9.20
2023-03-02T16:43:59.878Z,8.90
2023-03-02T16:48:06.477Z,8.67
2023-03-02T16:52:11.931Z,8.40
2023-03-02T16:56:17.615Z,8.90
2023-03-02T17:00:24.694Z,10.27
2023-03-02T17:04:30.355Z,9.27
2023-03-02T17:08:36.469Z,8.80
2023-03-02T17:12:41.968Z,9.10
2023-03-02T17:16:47.512Z,9.70
2023-03-02T17:20:55.792Z,10.17
2023-03-02T17:25:03.533Z,9.43
2023-03-02T17:29:10.132Z,9.00
2023-03-02T17:33:16.843Z,8.77
2023-03-02T17:37:22.477Z,9.10
2023-03-02T17:41:28.101Z,11.95
2023-03-02T17:45:33.637Z,10.50
2023-03-02T17:49:40.646Z,10.73
2023-03-02T17:53:49.016Z,10.57
2023-03-02T17:57:54.748Z,10.50
2023-03-02T18:02:00.733Z,10.53
2023-03-02T18:06:06.804Z,11.17
2023-03-02T18:10:14.102Z,10.20
2023-03-02T18:14:20.910Z,10.00
2023-03-02T18:18:26.412Z,11.00
2023-03-02T18:22:31.926Z,10.73
2023-03-02T18:26:37.953Z,11.47
2023-03-02T18:30:43.580Z,14.87
2023-03-02T18:34:49.110Z,11.90
2023-03-02T18:38:54.692Z,10.27
2023-03-02T18:43:00.288Z,10.03
2023-03-02T18:47:07.684Z,11.13
2023-03-02T18:51:13.469Z,10.80
2023-03-02T18:55:21.184Z,10.60
2023-03-02T18:59:26.789Z,10.87
2023-03-02T19:03:35.428Z,9.53
2023-03-02T19:07:41.342Z,11.17
2023-03-02T19:11:47.187Z,9.77
2023-03-02T19:15:54.877Z,10.37
2023-03-02T19:20:00.389Z,10.47
2023-03-02T19:24:06.403Z,10.00
2023-03-02T19:28:12.566Z,10.43
2023-03-02T19:32:20.126Z,11.03
2023-03-02T19:36:26.051Z,10.40
2023-03-02T19:40:32.125Z,10.80
2023-03-02T19:44:38.041Z,11.00
2023-03-02T19:48:44.384Z,11.40
2023-03-02T19:52:52.425Z,11.00
2023-03-02T19:56:58.000Z,11.00
2023-03-02T20:01:04.411Z,11.03
2023-03-02T20:05:10.719Z,11.10
2023-03-02T20:09:19.682Z,11.03
2023-03-02T20:13:27.148Z,10.10
2023-03-02T20:17:33.841Z,10.83
2023-03-02T20:21:39.404Z,10.00
2023-03-02T20:25:47.200Z,11.37
2023-03-02T20:29:53.835Z,11.40
2023-03-02T20:33:59.357Z,11.63
2023-03-02T20:38:07.967Z,11.03
2023-03-02T20:42:13.643Z,11.10
2023-03-02T20:46:30.020Z,11.03
2023-03-02T20:50:36.773Z,11.90
2023-03-02T20:54:43.766Z,10.47
2023-03-02T20:58:50.163Z,11.03
2023-03-02T21:02:57.218Z,13.00
2023-03-02T21:07:03.062Z,14.30
2023-03-02T21:11:15.965Z,14.80
2023-03-02T21:15:23.950Z,12.83
2023-03-02T21:19:29.709Z,12.37
2023-03-02T21:23:35.378Z,11.90
2023-03-02T21:27:41.122Z,11.97
2023-03-02T21:31:47.863Z,13.93
2023-03-02T21:35:53.416Z,12.60
2023-03-02T21:39:59.248Z,13.97
2023-03-02T21:44:06.083Z,13.53
2023-03-02T21:48:14.367Z,13.17
2023-03-02T21:52:20.087Z,15.87
2023-03-02T21:56:26.950Z,15.37
2023-03-02T22:00:36.278Z,14.97
2023-03-02T22:04:41.992Z,14.03
2023-03-02T22:08:47.624Z,14.87
2023-03-02T22:13:29.462Z,13.90
2023-03-02T22:17:34.928Z,14.10
2023-03-02T22:21:46.930Z,13.80
2023-03-02T22:26:12.583Z,14.53
2023-03-02T22:30:23.652Z,14.50
2023-03-02T22:34:31.280Z,15.57
2023-03-02T22:38:37.448Z,14.60
2023-03-02T22:42:43.168Z,16.50
2023-03-02T22:46:48.696Z,16.53
2023-03-02T22:50:54.372Z,17.10
2023-03-02T22:54:59.853Z,16.07
2023-03-02T22:59:28.159Z,14.87
2023-03-02T23:03:42.573Z,15.53
2023-03-02T23:07:48.322Z,15.00
2023-03-02T23:12:19.712Z,14.90
2023-03-02T23:16:29.228Z,14.73
2023-03-02T23:20:34.868Z,14.47
2023-03-02T23:24:40.669Z,14.47
2023-03-02T23:28:48.837Z,14.23
2023-03-02T23:32:54.501Z,14.47
2023-03-02T23:37:00.529Z,14.93
2023-03-02T23:41:07.486Z,13.97
2023-03-02T23:45:12.944Z,14.13
2023-03-02T23:49:19.041Z,12.93
2023-03-02T23:53:24.694Z,14.07
2023-03-02T23:57:30.393Z,13.57
